sensor_id;sensor_type;location;lat;lon;timestamp;pressure;altitude;pressure_sealevel;temperature;humidity
28027;BME280;15344;52.342;-1.290;2023-04-27T00:01:16;100432.51;;;12.47;52.20
28027;BME280;15344;52.342;-1.290;2023-04-27T00:03:42;100430.30;;;12.22;51.91
28027;BME280;15344;52.342;-1.290;2023-04-27T00:06:07;100427.79;;;12.34;51.84
28027;BME280;15344;52.342;-1.290;2023-04-27T00:08:32;100425.53;;;12.52;51.42
28027;BME280;15344;52.342;-1.290;2023-04-27T00:10:57;100419.07;;;12.71;51.43
28027;BME280;15344;52.342;-1.290;2023-04-27T00:13:23;100418.85;;;12.41;51.51
28027;BME280;15344;52.342;-1.290;2023-04-27T00:15:48;100418.06;;;12.68;52.04
28027;BME280;15344;52.342;-1.290;2023-04-27T00:18:14;100415.86;;;12.47;51.93
28027;BME280;15344;52.342;-1.290;2023-04-27T00:20:39;100414.15;;;12.19;52.30
28027;BME280;15344;52.342;-1.290;2023-04-27T00:23:04;100410.16;;;11.90;52.77
28027;BME280;15344;52.342;-1.290;2023-04-27T00:25:29;100404.21;;;11.75;54.45
28027;BME280;15344;52.342;-1.290;2023-04-27T00:27:55;100402.05;;;11.60;53.94
28027;BME280;15344;52.342;-1.290;2023-04-27T00:30:20;100402.07;;;11.61;54.55
28027;BME280;15344;52.342;-1.290;2023-04-27T00:32:45;100397.01;;;11.09;55.54
28027;BME280;15344;52.342;-1.290;2023-04-27T00:35:11;100391.36;;;9.81;57.95
28027;BME280;15344;52.342;-1.290;2023-04-27T00:37:35;100384.05;;;11.08;56.30
28027;BME280;15344;52.342;-1.290;2023-04-27T00:40:03;100381.29;;;11.11;56.50
28027;BME280;15344;52.342;-1.290;2023-04-27T00:42:27;100381.31;;;10.96;56.47
28027;BME280;15344;52.342;-1.290;2023-04-27T00:44:52;100384.46;;;10.94;57.44
28027;BME280;15344;52.342;-1.290;2023-04-27T00:47:18;100384.07;;;11.71;55.91
28027;BME280;15344;52.342;-1.290;2023-04-27T00:49:43;100380.86;;;10.87;58.08
28027;BME280;15344;52.342;-1.290;2023-04-27T00:52:08;100375.32;;;11.38;56.25
28027;BME280;15344;52.342;-1.290;2023-04-27T00:54:34;100370.91;;;11.24;56.87
28027;BME280;15344;52.342;-1.290;2023-04-27T00:56:59;100372.24;;;10.68;59.20
28027;BME280;15344;52.342;-1.290;2023-04-27T00:59:25;100372.13;;;10.70;58.92
28027;BME280;15344;52.342;-1.290;2023-04-27T01:01:50;100372.51;;;11.44;57.42
28027;BME280;15344;52.342;-1.290;2023-04-27T01:04:15;100370.28;;;11.24;57.48
28027;BME280;15344;52.342;-1.290;2023-04-27T01:06:40;100368.24;;;10.54;59.17
28027;BME280;15344;52.342;-1.290;2023-04-27T01:09:06;100369.19;;;10.89;58.81
28027;BME280;15344;52.342;-1.290;2023-04-27T01:11:32;100371.59;;;11.59;57.57
28027;BME280;15344;52.342;-1.290;2023-04-27T01:13:57;100371.32;;;10.60;60.23
28027;BME280;15344;52.342;-1.290;2023-04-27T01:16:23;100371.56;;;11.57;58.20
28027;BME280;15344;52.342;-1.290;2023-04-27T01:18:48;100373.23;;;11.81;57.19
28027;BME280;15344;52.342;-1.290;2023-04-27T01:21:13;100373.87;;;11.68;56.77
28027;BME280;15344;52.342;-1.290;2023-04-27T01:23:38;100376.13;;;11.71;56.58
28027;BME280;15344;52.342;-1.290;2023-04-27T01:26:04;100380.20;;;11.14;58.16
28027;BME280;15344;52.342;-1.290;2023-04-27T01:28:29;100383.76;;;11.75;57.06
28027;BME280;15344;52.342;-1.290;2023-04-27T01:30:55;100382.91;;;11.80;56.42
28027;BME280;15344;52.342;-1.290;2023-04-27T01:33:20;100380.32;;;11.85;55.98
28027;BME280;15344;52.342;-1.290;2023-04-27T01:35:46;100381.25;;;11.79;57.09
28027;BME280;15344;52.342;-1.290;2023-04-27T01:38:12;100383.08;;;12.13;55.99
28027;BME280;15344;52.342;-1.290;2023-04-27T01:40:37;100384.52;;;11.48;56.79
28027;BME280;15344;52.342;-1.290;2023-04-27T01:43:03;100387.94;;;11.97;55.79
28027;BME280;15344;52.342;-1.290;2023-04-27T01:45:29;100394.96;;;12.30;55.37
28027;BME280;15344;52.342;-1.290;2023-04-27T01:47:54;100402.51;;;11.86;56.97
28027;BME280;15344;52.342;-1.290;2023-04-27T01:50:20;100404.80;;;12.05;56.70
28027;BME280;15344;52.342;-1.290;2023-04-27T01:52:45;100399.83;;;10.98;59.44
28027;BME280;15344;52.342;-1.290;2023-04-27T01:55:11;100395.71;;;10.87;59.45
28027;BME280;15344;52.342;-1.290;2023-04-27T01:57:36;100397.85;;;11.07;60.47
28027;BME280;15344;52.342;-1.290;2023-04-27T02:00:02;100402.81;;;11.04;61.44
28027;BME280;15344;52.342;-1.290;2023-04-27T02:02:27;100407.58;;;10.23;63.64
28027;BME280;15344;52.342;-1.290;2023-04-27T02:04:53;100404.52;;;10.66;63.98
28027;BME280;15344;52.342;-1.290;2023-04-27T02:07:18;100402.44;;;10.81;62.05
28027;BME280;15344;52.342;-1.290;2023-04-27T02:09:43;100397.28;;;11.73;61.58
28027;BME280;15344;52.342;-1.290;2023-04-27T02:12:08;100401.37;;;10.69;61.89
28027;BME280;15344;52.342;-1.290;2023-04-27T02:14:34;100397.10;;;11.04;61.54
28027;BME280;15344;52.342;-1.290;2023-04-27T02:17:00;100398.94;;;10.73;62.67
28027;BME280;15344;52.342;-1.290;2023-04-27T02:19:25;100396.24;;;11.09;61.68
28027;BME280;15344;52.342;-1.290;2023-04-27T02:21:50;100395.19;;;10.27;62.89
28027;BME280;15344;52.342;-1.290;2023-04-27T02:24:16;100390.57;;;11.09;61.18
28027;BME280;15344;52.342;-1.290;2023-04-27T02:26:41;100395.45;;;11.24;60.14
28027;BME280;15344;52.342;-1.290;2023-04-27T02:29:06;100396.70;;;11.34;59.73
28027;BME280;15344;52.342;-1.290;2023-04-27T02:31:32;100394.77;;;11.49;59.13
28027;BME280;15344;52.342;-1.290;2023-04-27T02:33:58;100392.14;;;11.54;59.12
28027;BME280;15344;52.342;-1.290;2023-04-27T02:36:24;100384.39;;;11.76;58.76
28027;BME280;15344;52.342;-1.290;2023-04-27T02:38:50;100382.12;;;11.51;59.05
28027;BME280;15344;52.342;-1.290;2023-04-27T02:41:15;100379.52;;;10.96;59.98
28027;BME280;15344;52.342;-1.290;2023-04-27T02:43:40;100383.28;;;10.42;62.37
28027;BME280;15344;52.342;-1.290;2023-04-27T02:46:06;100376.52;;;10.78;61.58
28027;BME280;15344;52.342;-1.290;2023-04-27T02:48:31;100372.52;;;11.13;60.48
28027;BME280;15344;52.342;-1.290;2023-04-27T02:51:02;100370.42;;;11.35;59.84
28027;BME280;15344;52.342;-1.290;2023-04-27T02:53:22;100373.95;;;10.88;62.15
28027;BME280;15344;52.342;-1.290;2023-04-27T02:55:48;100375.35;;;10.48;63.17
28027;BME280;15344;52.342;-1.290;2023-04-27T02:58:13;100377.47;;;10.69;63.05
28027;BME280;15344;52.342;-1.290;2023-04-27T03:00:38;100370.32;;;11.28;61.63
28027;BME280;15344;52.342;-1.290;2023-04-27T03:03:04;100369.70;;;10.85;61.49
28027;BME280;15344;52.342;-1.290;2023-04-27T03:05:30;100366.84;;;10.77;60.91
28027;BME280;15344;52.342;-1.290;2023-04-27T03:07:55;100365.93;;;11.25;60.38
28027;BME280;15344;52.342;-1.290;2023-04-27T03:10:21;100365.02;;;11.08;61.02
28027;BME280;15344;52.342;-1.290;2023-04-27T03:12:46;100360.21;;;11.17;61.80
28027;BME280;15344;52.342;-1.290;2023-04-27T03:15:11;100361.18;;;10.67;61.58
28027;BME280;15344;52.342;-1.290;2023-04-27T03:17:37;100370.24;;;10.07;63.13
28027;BME280;15344;52.342;-1.290;2023-04-27T03:20:03;100364.89;;;11.26;61.43
28027;BME280;15344;52.342;-1.290;2023-04-27T03:22:28;100369.15;;;10.96;62.15
28027;BME280;15344;52.342;-1.290;2023-04-27T03:24:53;100369.49;;;10.75;61.29
28027;BME280;15344;52.342;-1.290;2023-04-27T03:27:19;100369.31;;;10.42;62.72
28027;BME280;15344;52.342;-1.290;2023-04-27T03:29:44;100369.65;;;10.29;63.82
28027;BME280;15344;52.342;-1.290;2023-04-27T03:32:10;100361.32;;;10.98;62.55
28027;BME280;15344;52.342;-1.290;2023-04-27T03:34:35;100356.63;;;11.22;61.65
28027;BME280;15344;52.342;-1.290;2023-04-27T03:37:01;100359.35;;;10.63;63.24
28027;BME280;15344;52.342;-1.290;2023-04-27T03:39:26;100357.17;;;11.15;62.32
28027;BME280;15344;52.342;-1.290;2023-04-27T03:41:52;100354.08;;;10.99;62.16
28027;BME280;15344;52.342;-1.290;2023-04-27T03:44:16;100353.68;;;10.88;62.59
28027;BME280;15344;52.342;-1.290;2023-04-27T03:46:42;100351.89;;;10.60;63.30
28027;BME280;15344;52.342;-1.290;2023-04-27T03:49:07;100349.53;;;9.84;66.90
28027;BME280;15344;52.342;-1.290;2023-04-27T03:51:33;100347.74;;;9.80;67.60
28027;BME280;15344;52.342;-1.290;2023-04-27T03:53:59;100346.27;;;8.69;71.63
28027;BME280;15344;52.342;-1.290;2023-04-27T03:56:24;100337.56;;;9.18;71.09
28027;BME280;15344;52.342;-1.290;2023-04-27T03:58:49;100334.71;;;9.52;70.95
28027;BME280;15344;52.342;-1.290;2023-04-27T04:01:15;100334.91;;;9.96;68.36
28027;BME280;15344;52.342;-1.290;2023-04-27T04:03:41;100332.00;;;9.83;67.44
28027;BME280;15344;52.342;-1.290;2023-04-27T04:06:07;100327.79;;;10.69;65.46
28027;BME280;15344;52.342;-1.290;2023-04-27T04:08:32;100329.98;;;10.94;63.52
28027;BME280;15344;52.342;-1.290;2023-04-27T04:10:57;100331.78;;;10.64;64.88
28027;BME280;15344;52.342;-1.290;2023-04-27T04:13:23;100332.14;;;9.75;66.74
28027;BME280;15344;52.342;-1.290;2023-04-27T04:15:48;100324.47;;;10.59;65.00
28027;BME280;15344;52.342;-1.290;2023-04-27T04:18:13;100323.38;;;10.32;66.09
28027;BME280;15344;52.342;-1.290;2023-04-27T04:20:39;100319.85;;;9.65;68.69
28027;BME280;15344;52.342;-1.290;2023-04-27T04:23:05;100312.19;;;10.75;64.57
28027;BME280;15344;52.342;-1.290;2023-04-27T04:25:30;100312.51;;;11.04;62.98
28027;BME280;15344;52.342;-1.290;2023-04-27T04:27:56;100313.45;;;10.89;64.13
28027;BME280;15344;52.342;-1.290;2023-04-27T04:30:22;100311.88;;;10.91;63.16
28027;BME280;15344;52.342;-1.290;2023-04-27T04:32:47;100311.36;;;10.81;62.85
28027;BME280;15344;52.342;-1.290;2023-04-27T04:35:13;100315.26;;;10.52;64.20
28027;BME280;15344;52.342;-1.290;2023-04-27T04:37:38;100316.49;;;9.97;64.87
28027;BME280;15344;52.342;-1.290;2023-04-27T04:40:04;100316.57;;;10.12;65.21
28027;BME280;15344;52.342;-1.290;2023-04-27T04:42:29;100309.32;;;10.42;65.04
28027;BME280;15344;52.342;-1.290;2023-04-27T04:44:54;100305.25;;;10.72;64.01
28027;BME280;15344;52.342;-1.290;2023-04-27T04:47:19;100307.39;;;10.29;65.70
28027;BME280;15344;52.342;-1.290;2023-04-27T04:49:45;100302.58;;;9.85;66.56
28027;BME280;15344;52.342;-1.290;2023-04-27T04:52:10;100303.35;;;9.67;67.74
28027;BME280;15344;52.342;-1.290;2023-04-27T04:54:36;100293.11;;;10.87;64.68
28027;BME280;15344;52.342;-1.290;2023-04-27T04:57:02;100294.46;;;11.03;63.73
28027;BME280;15344;52.342;-1.290;2023-04-27T04:59:31;100287.93;;;10.48;65.44
28027;BME280;15344;52.342;-1.290;2023-04-27T05:01:53;100294.05;;;10.42;63.75
28027;BME280;15344;52.342;-1.290;2023-04-27T05:04:19;100303.48;;;9.56;68.16
28027;BME280;15344;52.342;-1.290;2023-04-27T05:06:44;100303.93;;;9.61;67.53
28027;BME280;15344;52.342;-1.290;2023-04-27T05:09:10;100299.79;;;10.70;64.87
28027;BME280;15344;52.342;-1.290;2023-04-27T05:11:35;100301.28;;;10.47;63.68
28027;BME280;15344;52.342;-1.290;2023-04-27T05:14:00;100299.92;;;11.07;64.09
28027;BME280;15344;52.342;-1.290;2023-04-27T05:16:26;100297.36;;;11.30;63.16
28027;BME280;15344;52.342;-1.290;2023-04-27T05:18:52;100296.81;;;10.02;66.00
28027;BME280;15344;52.342;-1.290;2023-04-27T05:21:18;100286.87;;;9.76;67.72
28027;BME280;15344;52.342;-1.290;2023-04-27T05:23:43;100289.61;;;10.05;67.93
28027;BME280;15344;52.342;-1.290;2023-04-27T05:26:11;100289.99;;;8.93;71.03
28027;BME280;15344;52.342;-1.290;2023-04-27T05:28:35;100292.91;;;9.76;70.47
28027;BME280;15344;52.342;-1.290;2023-04-27T05:31:00;100295.61;;;9.66;71.34
28027;BME280;15344;52.342;-1.290;2023-04-27T05:33:26;100294.14;;;9.50;71.31
28027;BME280;15344;52.342;-1.290;2023-04-27T05:35:51;100288.68;;;9.77;70.35
28027;BME280;15344;52.342;-1.290;2023-04-27T05:38:17;100286.97;;;10.00;69.52
28027;BME280;15344;52.342;-1.290;2023-04-27T05:40:42;100292.18;;;9.89;71.09
28027;BME280;15344;52.342;-1.290;2023-04-27T05:43:08;100300.09;;;10.13;70.40
28027;BME280;15344;52.342;-1.290;2023-04-27T05:45:38;100297.80;;;10.40;69.46
28027;BME280;15344;52.342;-1.290;2023-04-27T05:47:59;100301.17;;;9.00;73.90
28027;BME280;15344;52.342;-1.290;2023-04-27T05:50:25;100295.04;;;10.74;68.97
28027;BME280;15344;52.342;-1.290;2023-04-27T05:52:51;100297.96;;;10.42;70.14
28027;BME280;15344;52.342;-1.290;2023-04-27T05:55:16;100294.33;;;9.83;72.12
28027;BME280;15344;52.342;-1.290;2023-04-27T05:57:41;100290.31;;;11.02;68.75
28027;BME280;15344;52.342;-1.290;2023-04-27T06:00:08;100286.59;;;10.39;69.30
28027;BME280;15344;52.342;-1.290;2023-04-27T06:02:32;100285.06;;;10.27;68.45
28027;BME280;15344;52.342;-1.290;2023-04-27T06:04:57;100289.89;;;10.07;71.78
28027;BME280;15344;52.342;-1.290;2023-04-27T06:07:23;100289.10;;;10.27;71.02
28027;BME280;15344;52.342;-1.290;2023-04-27T06:09:49;100294.74;;;10.16;72.66
28027;BME280;15344;52.342;-1.290;2023-04-27T06:12:14;100291.32;;;10.20;71.02
28027;BME280;15344;52.342;-1.290;2023-04-27T06:14:40;100290.34;;;10.43;69.68
28027;BME280;15344;52.342;-1.290;2023-04-27T06:17:06;100287.13;;;11.03;68.81
28027;BME280;15344;52.342;-1.290;2023-04-27T06:19:31;100283.58;;;10.51;71.00
28027;BME280;15344;52.342;-1.290;2023-04-27T06:21:56;100280.06;;;11.04;69.13
28027;BME280;15344;52.342;-1.290;2023-04-27T06:24:22;100273.88;;;10.79;71.11
28027;BME280;15344;52.342;-1.290;2023-04-27T06:26:48;100268.62;;;11.21;67.58
28027;BME280;15344;52.342;-1.290;2023-04-27T06:29:13;100269.13;;;11.64;66.06
28027;BME280;15344;52.342;-1.290;2023-04-27T06:31:39;100263.69;;;10.89;71.21
28027;BME280;15344;52.342;-1.290;2023-04-27T06:34:04;100263.68;;;11.27;68.42
28027;BME280;15344;52.342;-1.290;2023-04-27T06:36:30;100261.49;;;11.84;64.86
28027;BME280;15344;52.342;-1.290;2023-04-27T06:38:56;100263.00;;;10.43;70.75
28027;BME280;15344;52.342;-1.290;2023-04-27T06:41:22;100264.60;;;11.10;69.09
28027;BME280;15344;52.342;-1.290;2023-04-27T06:43:46;100265.17;;;11.72;67.11
28027;BME280;15344;52.342;-1.290;2023-04-27T06:46:12;100267.09;;;10.97;69.97
28027;BME280;15344;52.342;-1.290;2023-04-27T06:48:38;100270.09;;;11.74;66.13
28027;BME280;15344;52.342;-1.290;2023-04-27T06:51:03;100269.68;;;11.54;67.60
28027;BME280;15344;52.342;-1.290;2023-04-27T06:53:30;100267.33;;;12.10;65.70
28027;BME280;15344;52.342;-1.290;2023-04-27T06:55:54;100276.45;;;11.71;66.08
28027;BME280;15344;52.342;-1.290;2023-04-27T06:58:19;100276.54;;;12.24;64.25
28027;BME280;15344;52.342;-1.290;2023-04-27T07:00:45;100279.33;;;12.36;62.68
28027;BME280;15344;52.342;-1.290;2023-04-27T07:03:10;100279.63;;;10.98;68.20
28027;BME280;15344;52.342;-1.290;2023-04-27T07:05:36;100275.79;;;11.26;68.07
28027;BME280;15344;52.342;-1.290;2023-04-27T07:08:01;100273.63;;;11.65;65.25
28027;BME280;15344;52.342;-1.290;2023-04-27T07:10:26;100273.56;;;12.11;63.71
28027;BME280;15344;52.342;-1.290;2023-04-27T07:12:53;100278.43;;;11.92;65.42
28027;BME280;15344;52.342;-1.290;2023-04-27T07:15:18;100283.77;;;11.81;64.72
28027;BME280;15344;52.342;-1.290;2023-04-27T07:17:43;100285.69;;;11.31;70.69
28027;BME280;15344;52.342;-1.290;2023-04-27T07:20:09;100284.98;;;11.85;65.44
28027;BME280;15344;52.342;-1.290;2023-04-27T07:22:34;100284.61;;;12.41;66.68
28027;BME280;15344;52.342;-1.290;2023-04-27T07:24:59;100282.39;;;12.38;66.08
28027;BME280;15344;52.342;-1.290;2023-04-27T07:27:24;100281.53;;;11.68;69.54
28027;BME280;15344;52.342;-1.290;2023-04-27T07:29:49;100282.88;;;13.36;62.54
28027;BME280;15344;52.342;-1.290;2023-04-27T07:32:15;100283.78;;;13.76;61.62
28027;BME280;15344;52.342;-1.290;2023-04-27T07:34:40;100288.54;;;13.97;60.35
28027;BME280;15344;52.342;-1.290;2023-04-27T07:37:07;100288.06;;;13.41;62.49
28027;BME280;15344;52.342;-1.290;2023-04-27T07:39:32;100288.85;;;13.42;59.17
28027;BME280;15344;52.342;-1.290;2023-04-27T07:41:56;100286.44;;;13.83;59.43
28027;BME280;15344;52.342;-1.290;2023-04-27T07:44:22;100284.46;;;14.06;59.36
28027;BME280;15344;52.342;-1.290;2023-04-27T07:46:47;100289.28;;;13.61;58.81
28027;BME280;15344;52.342;-1.290;2023-04-27T07:49:13;100287.88;;;11.94;64.69
28027;BME280;15344;52.342;-1.290;2023-04-27T07:51:39;100290.11;;;13.17;62.30
28027;BME280;15344;52.342;-1.290;2023-04-27T07:54:04;100289.30;;;13.33;60.70
28027;BME280;15344;52.342;-1.290;2023-04-27T07:56:29;100291.69;;;12.87;61.63
28027;BME280;15344;52.342;-1.290;2023-04-27T07:58:54;100296.30;;;12.25;62.72
28027;BME280;15344;52.342;-1.290;2023-04-27T08:01:19;100296.59;;;13.45;60.22
28027;BME280;15344;52.342;-1.290;2023-04-27T08:03:45;100297.40;;;13.18;63.61
28027;BME280;15344;52.342;-1.290;2023-04-27T08:06:10;100294.61;;;12.48;64.48
28027;BME280;15344;52.342;-1.290;2023-04-27T08:08:36;100289.89;;;12.85;63.36
28027;BME280;15344;52.342;-1.290;2023-04-27T08:11:01;100285.84;;;12.80;62.77
28027;BME280;15344;52.342;-1.290;2023-04-27T08:13:26;100285.60;;;12.69;62.26
28027;BME280;15344;52.342;-1.290;2023-04-27T08:15:52;100286.50;;;12.62;62.33
28027;BME280;15344;52.342;-1.290;2023-04-27T08:18:17;100286.41;;;12.08;64.07
28027;BME280;15344;52.342;-1.290;2023-04-27T08:20:43;100285.91;;;12.95;62.60
28027;BME280;15344;52.342;-1.290;2023-04-27T08:23:09;100281.28;;;13.31;60.18
28027;BME280;15344;52.342;-1.290;2023-04-27T08:25:35;100279.97;;;13.10;61.27
28027;BME280;15344;52.342;-1.290;2023-04-27T08:27:59;100274.02;;;12.60;62.62
28027;BME280;15344;52.342;-1.290;2023-04-27T08:30:25;100272.57;;;14.13;58.54
28027;BME280;15344;52.342;-1.290;2023-04-27T08:32:50;100263.45;;;14.48;56.14
28027;BME280;15344;52.342;-1.290;2023-04-27T08:35:16;100255.88;;;14.32;57.76
28027;BME280;15344;52.342;-1.290;2023-04-27T08:37:41;100255.28;;;13.68;59.23
28027;BME280;15344;52.342;-1.290;2023-04-27T08:40:08;100252.22;;;13.98;56.62
28027;BME280;15344;52.342;-1.290;2023-04-27T08:42:32;100245.64;;;13.92;58.00
28027;BME280;15344;52.342;-1.290;2023-04-27T08:44:57;100247.55;;;13.20;57.57
28027;BME280;15344;52.342;-1.290;2023-04-27T08:47:23;100246.90;;;12.29;61.66
28027;BME280;15344;52.342;-1.290;2023-04-27T08:49:48;100243.91;;;13.74;59.53
28027;BME280;15344;52.342;-1.290;2023-04-27T08:52:15;100240.18;;;14.15;56.94
28027;BME280;15344;52.342;-1.290;2023-04-27T08:54:39;100238.34;;;14.01;58.74
28027;BME280;15344;52.342;-1.290;2023-04-27T08:57:09;100236.83;;;13.76;57.81
28027;BME280;15344;52.342;-1.290;2023-04-27T08:59:29;100227.20;;;14.31;56.75
28027;BME280;15344;52.342;-1.290;2023-04-27T09:01:55;100219.68;;;14.30;57.14
28027;BME280;15344;52.342;-1.290;2023-04-27T09:04:20;100218.83;;;13.94;57.43
28027;BME280;15344;52.342;-1.290;2023-04-27T09:06:45;100215.78;;;13.99;57.11
28027;BME280;15344;52.342;-1.290;2023-04-27T09:11:37;100227.54;;;12.95;61.12
28027;BME280;15344;52.342;-1.290;2023-04-27T09:14:14;100222.57;;;13.86;57.83
28027;BME280;15344;52.342;-1.290;2023-04-27T09:16:28;100221.59;;;13.71;55.99
28027;BME280;15344;52.342;-1.290;2023-04-27T09:18:53;100219.96;;;13.92;56.60
28027;BME280;15344;52.342;-1.290;2023-04-27T09:21:24;100214.35;;;14.05;55.97
28027;BME280;15344;52.342;-1.290;2023-04-27T09:23:43;100216.94;;;12.65;58.77
28027;BME280;15344;52.342;-1.290;2023-04-27T09:26:09;100207.83;;;13.13;58.70
28027;BME280;15344;52.342;-1.290;2023-04-27T09:28:38;100202.92;;;13.80;57.93
28027;BME280;15344;52.342;-1.290;2023-04-27T09:31:01;100200.88;;;13.79;57.38
28027;BME280;15344;52.342;-1.290;2023-04-27T09:33:27;100199.66;;;13.03;59.67
28027;BME280;15344;52.342;-1.290;2023-04-27T09:35:51;100197.75;;;13.12;62.37
28027;BME280;15344;52.342;-1.290;2023-04-27T09:38:17;100188.88;;;14.13;57.27
28027;BME280;15344;52.342;-1.290;2023-04-27T09:40:41;100189.77;;;12.73;60.97
28027;BME280;15344;52.342;-1.290;2023-04-27T09:43:07;100185.81;;;13.34;59.40
28027;BME280;15344;52.342;-1.290;2023-04-27T09:45:32;100179.61;;;13.77;58.11
28027;BME280;15344;52.342;-1.290;2023-04-27T09:47:58;100176.08;;;12.58;60.22
28027;BME280;15344;52.342;-1.290;2023-04-27T09:50:23;100161.63;;;14.06;56.73
28027;BME280;15344;52.342;-1.290;2023-04-27T09:52:49;100161.16;;;13.53;57.21
28027;BME280;15344;52.342;-1.290;2023-04-27T09:55:17;100165.89;;;14.27;57.33
28027;BME280;15344;52.342;-1.290;2023-04-27T09:57:48;100163.82;;;14.20;55.97
28027;BME280;15344;52.342;-1.290;2023-04-27T10:00:16;100162.80;;;14.12;57.10
28027;BME280;15344;52.342;-1.290;2023-04-27T10:02:37;100165.46;;;13.99;54.38
28027;BME280;15344;52.342;-1.290;2023-04-27T10:07:22;100162.30;;;14.15;55.19
28027;BME280;15344;52.342;-1.290;2023-04-27T10:09:47;100165.93;;;14.62;54.08
28027;BME280;15344;52.342;-1.290;2023-04-27T10:12:15;100166.59;;;14.54;51.16
28027;BME280;15344;52.342;-1.290;2023-04-27T10:17:09;100174.26;;;13.64;50.84
28027;BME280;15344;52.342;-1.290;2023-04-27T10:19:28;100160.09;;;13.81;50.33
28027;BME280;15344;52.342;-1.290;2023-04-27T10:21:55;100159.05;;;13.65;50.71
28027;BME280;15344;52.342;-1.290;2023-04-27T10:24:18;100160.65;;;13.81;51.95
28027;BME280;15344;52.342;-1.290;2023-04-27T10:26:46;100153.50;;;13.65;49.76
28027;BME280;15344;52.342;-1.290;2023-04-27T10:29:09;100151.42;;;13.08;51.57
28027;BME280;15344;52.342;-1.290;2023-04-27T10:31:42;100147.01;;;13.57;49.01
28027;BME280;15344;52.342;-1.290;2023-04-27T10:34:06;100143.45;;;13.52;49.98
28027;BME280;15344;52.342;-1.290;2023-04-27T10:36:33;100139.35;;;12.71;50.65
28027;BME280;15344;52.342;-1.290;2023-04-27T10:38:55;100133.19;;;12.75;52.46
28027;BME280;15344;52.342;-1.290;2023-04-27T10:41:17;100122.83;;;13.41;50.33
28027;BME280;15344;52.342;-1.290;2023-04-27T10:43:42;100111.95;;;13.82;50.55
28027;BME280;15344;52.342;-1.290;2023-04-27T10:46:08;100111.87;;;12.79;51.44
28027;BME280;15344;52.342;-1.290;2023-04-27T10:48:33;100107.58;;;14.29;47.19
28027;BME280;15344;52.342;-1.290;2023-04-27T10:51:00;100110.52;;;13.82;49.08
28027;BME280;15344;52.342;-1.290;2023-04-27T10:53:24;100105.03;;;13.69;49.39
28027;BME280;15344;52.342;-1.290;2023-04-27T10:55:54;100102.59;;;13.93;46.66
28027;BME280;15344;52.342;-1.290;2023-04-27T10:58:21;100107.50;;;13.35;47.48
28027;BME280;15344;52.342;-1.290;2023-04-27T11:00:45;100095.94;;;13.16;47.28
28027;BME280;15344;52.342;-1.290;2023-04-27T11:03:12;100096.77;;;13.80;46.82
28027;BME280;15344;52.342;-1.290;2023-04-27T11:05:30;100090.40;;;13.39;48.54
28027;BME280;15344;52.342;-1.290;2023-04-27T11:08:04;100085.34;;;14.23;46.32
28027;BME280;15344;52.342;-1.290;2023-04-27T11:10:21;100079.91;;;14.19;46.30
28027;BME280;15344;52.342;-1.290;2023-04-27T11:12:46;100076.73;;;15.14;47.05
28027;BME280;15344;52.342;-1.290;2023-04-27T11:15:12;100071.75;;;14.26;46.15
28027;BME280;15344;52.342;-1.290;2023-04-27T11:17:38;100069.02;;;13.96;47.49
28027;BME280;15344;52.342;-1.290;2023-04-27T11:20:04;100069.68;;;13.84;44.42
28027;BME280;15344;52.342;-1.290;2023-04-27T11:22:29;100069.28;;;14.21;45.20
28027;BME280;15344;52.342;-1.290;2023-04-27T11:24:55;100072.34;;;13.96;46.27
28027;BME280;15344;52.342;-1.290;2023-04-27T11:27:20;100062.70;;;13.93;45.74
28027;BME280;15344;52.342;-1.290;2023-04-27T11:29:46;100060.19;;;14.21;46.07
28027;BME280;15344;52.342;-1.290;2023-04-27T11:32:17;100056.79;;;14.17;45.39
28027;BME280;15344;52.342;-1.290;2023-04-27T11:34:37;100051.61;;;14.06;45.60
28027;BME280;15344;52.342;-1.290;2023-04-27T11:37:04;100045.34;;;15.07;44.81
28027;BME280;15344;52.342;-1.290;2023-04-27T11:39:31;100044.70;;;14.44;43.79
28027;BME280;15344;52.342;-1.290;2023-04-27T11:41:53;100040.66;;;13.27;45.85
28027;BME280;15344;52.342;-1.290;2023-04-27T11:44:24;100045.30;;;13.88;45.51
28027;BME280;15344;52.342;-1.290;2023-04-27T11:46:44;100041.21;;;13.83;45.57
28027;BME280;15344;52.342;-1.290;2023-04-27T11:49:09;100037.22;;;13.73;45.64
28027;BME280;15344;52.342;-1.290;2023-04-27T11:51:35;100034.87;;;13.37;46.54
28027;BME280;15344;52.342;-1.290;2023-04-27T11:54:01;100033.42;;;13.46;46.97
28027;BME280;15344;52.342;-1.290;2023-04-27T11:56:34;100029.17;;;13.12;46.90
28027;BME280;15344;52.342;-1.290;2023-04-27T11:58:51;100026.25;;;13.08;46.88
28027;BME280;15344;52.342;-1.290;2023-04-27T12:01:16;100026.56;;;14.76;44.80
28027;BME280;15344;52.342;-1.290;2023-04-27T12:03:42;100029.93;;;14.27;46.25
28027;BME280;15344;52.342;-1.290;2023-04-27T12:06:07;100038.72;;;13.22;47.45
28027;BME280;15344;52.342;-1.290;2023-04-27T12:08:32;100034.40;;;13.00;48.89
28027;BME280;15344;52.342;-1.290;2023-04-27T12:10:58;100025.82;;;13.12;49.13
28027;BME280;15344;52.342;-1.290;2023-04-27T12:13:24;100026.24;;;12.99;48.64
28027;BME280;15344;52.342;-1.290;2023-04-27T12:15:49;100029.86;;;12.97;48.86
28027;BME280;15344;52.342;-1.290;2023-04-27T12:18:14;100024.79;;;13.03;49.54
28027;BME280;15344;52.342;-1.290;2023-04-27T12:20:39;100030.13;;;13.17;49.18
28027;BME280;15344;52.342;-1.290;2023-04-27T12:23:04;100028.29;;;13.76;49.28
28027;BME280;15344;52.342;-1.290;2023-04-27T12:25:29;100023.47;;;13.30;48.71
28027;BME280;15344;52.342;-1.290;2023-04-27T12:27:55;100021.68;;;13.35;48.97
28027;BME280;15344;52.342;-1.290;2023-04-27T12:30:21;100026.95;;;13.95;48.16
28027;BME280;15344;52.342;-1.290;2023-04-27T12:32:46;100023.61;;;13.89;48.10
28027;BME280;15344;52.342;-1.290;2023-04-27T12:35:11;100023.12;;;12.79;51.01
28027;BME280;15344;52.342;-1.290;2023-04-27T12:37:36;100020.99;;;13.96;49.32